Time;durP1;ratioP1;P1;durP2;ratioP2;P2;SDS_P1;SDS_P2;PMS_P1;PMS_P2;Temp;Humidity;BMP_temperature;BMP_pressure;BME280_temperature;BME280_humidity;BME280_pressure;Samples;Min_cycle;Max_cycle;Signal;HPM_P1;HPM_P2
2023/12/08 00:00:21;;;;;;;;;;;;;;;-0.54;100.00;100496.66;5013860;28;19932;-81
2023/12/08 00:02:47;;;;;;;;;;;;;;;-0.55;100.00;100505.56;5013600;28;19949;-81
2023/12/08 00:05:13;;;;;;;;;;;;;;;-0.52;100.00;100526.47;5005939;28;19921;-81
2023/12/08 00:07:40;;;;;;;;;;;;;;;-0.57;100.00;100511.00;5021554;28;19909;-81
2023/12/08 00:10:05;;;;;;;;;;;;;;;-0.58;100.00;100479.38;5026132;28;19925;-81
2023/12/08 00:12:30;;;;;;;;;;;;;;;-0.59;100.00;100480.34;5014719;28;19917;-81
2023/12/08 00:14:56;;;;;;;;;;;;;;;-0.60;100.00;100487.47;5012965;28;19944;-81
2023/12/08 00:17:24;;;;;;;;;;;;;;;-0.62;100.00;100484.13;5009707;28;19921;-81
2023/12/08 00:19:49;;;;;;;;;;;;;;;-0.56;100.00;100480.94;5013639;28;19926;-81
2023/12/08 00:22:20;;;;;;;;;;;;;;;-0.54;100.00;100500.16;5027707;22;19933;-81
2023/12/08 00:24:45;;;;;;;;;;;;;;;-0.51;100.00;100497.22;5013919;28;19921;-81
2023/12/08 00:27:11;;;;;;;;;;;;;;;-0.43;100.00;100504.50;5014212;28;19979;-81
2023/12/08 00:29:36;;;;;;;;;;;;;;;-0.47;100.00;100493.34;5014724;28;19921;-81
2023/12/08 00:32:01;;;;;;;;;;;;;;;-0.52;100.00;100479.69;5014268;28;19922;-81
2023/12/08 00:34:26;;;;;;;;;;;;;;;-0.54;100.00;100479.00;5014474;28;20063;-81
2023/12/08 00:36:52;;;;;;;;;;;;;;;-0.52;100.00;100463.81;5015581;28;19965;-81
2023/12/08 00:39:17;;;;;;;;;;;;;;;-0.56;100.00;100467.72;5016032;28;19925;-81
2023/12/08 00:41:42;;;;;;;;;;;;;;;-0.54;100.00;100463.16;5018780;28;19932;-81
2023/12/08 00:44:08;;;;;;;;;;;;;;;-0.48;100.00;100465.22;5016351;28;19921;-81
2023/12/08 00:46:33;;;;;;;;;;;;;;;-0.51;100.00;100451.47;5015713;28;19921;-81
2023/12/08 00:48:59;;;;;;;;;;;;;;;-0.51;100.00;100456.75;5013757;28;20443;-81
2023/12/08 00:51:24;;;;;;;;;;;;;;;-0.52;100.00;100450.59;5013337;28;19929;-81
2023/12/08 00:53:49;;;;;;;;;;;;;;;-0.44;100.00;100451.75;5013397;28;19926;-81
2023/12/08 00:56:14;;;;;;;;;;;;;;;-0.44;100.00;100431.41;5012693;28;19928;-81
2023/12/08 00:58:40;;;;;;;;;;;;;;;-0.39;100.00;100433.69;5013739;28;20001;-81
2023/12/08 01:01:05;;;;;;;;;;;;;;;-0.39;100.00;100436.31;5012981;28;19925;-82
2023/12/08 01:03:30;;;;;;;;;;;;;;;-0.38;100.00;100432.72;5011645;28;19929;-81
2023/12/08 01:05:56;;;;;;;;;;;;;;;-0.41;100.00;100432.97;5014801;28;19928;-81
2023/12/08 01:08:24;;;;;;;;;;;;;;;-0.43;100.00;100429.63;5016097;28;19948;-81
2023/12/08 01:10:52;;;;;;;;;;;;;;;-0.40;100.00;100424.06;5022739;28;19941;-81
2023/12/08 01:13:20;;;;;;;;;;;;;;;-0.43;100.00;100419.88;5337953;22;19994;-81
2023/12/08 01:15:48;;;;;;;;;;;;;;;-0.46;100.00;100410.41;4993641;28;20032;-81
2023/12/08 01:18:19;;;;;;;;;;;;;;;-0.39;100.00;100425.75;5001654;28;19928;-81
2023/12/08 01:20:59;;;;;;;;;;;;;;;-0.37;100.00;100414.03;5007826;28;19930;-81
2023/12/08 01:23:25;;;;;;;;;;;;;;;-0.31;100.00;100407.38;5000556;28;19930;-82
2023/12/08 01:25:59;;;;;;;;;;;;;;;-0.27;100.00;100413.25;4996519;28;19932;-81
2023/12/08 01:28:28;;;;;;;;;;;;;;;-0.31;100.00;100407.38;4997333;28;20382;-81
2023/12/08 01:30:56;;;;;;;;;;;;;;;-0.32;100.00;100421.56;4994071;28;19961;-81
2023/12/08 01:33:21;;;;;;;;;;;;;;;-0.35;100.00;100416.53;4998060;28;19932;-82
2023/12/08 01:35:58;;;;;;;;;;;;;;;-0.36;100.00;100415.72;5012947;28;19929;-81
2023/12/08 01:38:23;;;;;;;;;;;;;;;-0.32;100.00;100413.63;5001903;28;19926;-81
2023/12/08 01:41:07;;;;;;;;;;;;;;;-0.24;100.00;100413.78;5007531;28;20395;-81
2023/12/08 01:43:32;;;;;;;;;;;;;;;-0.23;100.00;100418.13;5003801;28;19964;-81
2023/12/08 01:45:58;;;;;;;;;;;;;;;-0.23;100.00;100414.63;5002808;28;20381;-81
2023/12/08 01:48:40;;;;;;;;;;;;;;;-0.24;100.00;100413.78;5017026;28;19921;-81
2023/12/08 01:51:06;;;;;;;;;;;;;;;-0.25;100.00;100412.13;5019408;28;20441;-81
2023/12/08 01:53:31;;;;;;;;;;;;;;;-0.21;100.00;100410.88;4995387;28;20016;-81
2023/12/08 01:56:06;;;;;;;;;;;;;;;-0.23;100.00;100412.81;5001824;28;19925;-81
2023/12/08 01:58:31;;;;;;;;;;;;;;;-0.23;100.00;100409.31;5004726;28;20013;-78
2023/12/08 02:01:02;;;;;;;;;;;;;;;-0.23;100.00;100406.69;5009551;28;19956;-78
2023/12/08 02:03:27;;;;;;;;;;;;;;;-0.25;100.00;100406.84;5863628;22;19948;-79
2023/12/08 02:05:53;;;;;;;;;;;;;;;-0.30;100.00;100401.09;5000594;28;19925;-79
2023/12/08 02:08:18;;;;;;;;;;;;;;;-0.28;100.00;100401.00;5026085;28;19921;-79
2023/12/08 02:10:43;;;;;;;;;;;;;;;-0.24;100.00;100389.13;5002503;28;20303;-79
2023/12/08 02:13:08;;;;;;;;;;;;;;;-0.22;100.00;100401.28;5003990;28;19944;-79
2023/12/08 02:15:34;;;;;;;;;;;;;;;-0.26;100.00;100405.16;4993142;28;19957;-79
2023/12/08 02:17:59;;;;;;;;;;;;;;;-0.27;100.00;100400.84;5019359;28;19934;-79
2023/12/08 02:20:24;;;;;;;;;;;;;;;-0.26;100.00;100401.66;4999332;28;19925;-79
2023/12/08 02:22:50;;;;;;;;;;;;;;;-0.26;100.00;100393.72;5008127;28;20516;-79
2023/12/08 02:25:15;;;;;;;;;;;;;;;-0.28;100.00;100385.94;5000993;28;20617;-79
2023/12/08 02:27:40;;;;;;;;;;;;;;;-0.29;100.00;100380.81;4999572;28;20329;-79
2023/12/08 02:30:06;;;;;;;;;;;;;;;-0.25;100.00;100379.53;5007736;28;19928;-78
2023/12/08 02:32:31;;;;;;;;;;;;;;;-0.28;100.00;100369.25;5008196;28;19925;-79
2023/12/08 02:34:57;;;;;;;;;;;;;;;-0.24;100.00;100371.47;5009104;28;19926;-79
2023/12/08 02:37:22;;;;;;;;;;;;;;;-0.26;100.00;100370.78;5003755;28;20016;-79
2023/12/08 02:39:48;;;;;;;;;;;;;;;-0.27;100.00;100374.38;4993016;28;20064;-79
2023/12/08 02:42:13;;;;;;;;;;;;;;;-0.30;100.00;100374.66;4998670;28;19972;-79
2023/12/08 02:44:38;;;;;;;;;;;;;;;-0.24;100.00;100371.47;5003290;28;19921;-79
2023/12/08 02:47:04;;;;;;;;;;;;;;;-0.27;100.00;100366.44;5014860;28;20377;-79
2023/12/08 02:49:29;;;;;;;;;;;;;;;-0.24;100.00;100360.88;5001037;28;20000;-79
2023/12/08 02:51:54;;;;;;;;;;;;;;;-0.24;100.00;100360.88;4995796;28;19929;-79
2023/12/08 02:54:19;;;;;;;;;;;;;;;-0.21;100.00;100363.25;4995732;28;19981;-79
2023/12/08 02:56:45;;;;;;;;;;;;;;;-0.19;100.00;100357.81;5004454;28;19922;-79
2023/12/08 02:59:10;;;;;;;;;;;;;;;-0.18;100.00;100354.19;5011156;28;19936;-79
2023/12/08 03:01:35;;;;;;;;;;;;;;;-0.12;100.00;100347.50;4999668;28;20004;-79
2023/12/08 03:04:00;;;;;;;;;;;;;;;-0.07;100.00;100337.34;5002983;28;19969;-79
2023/12/08 03:06:28;;;;;;;;;;;;;;;-0.07;100.00;100340.00;4993412;28;19925;-79
2023/12/08 03:08:54;;;;;;;;;;;;;;;-0.08;100.00;100338.31;5001806;28;19951;-79
2023/12/08 03:11:19;;;;;;;;;;;;;;;-0.05;100.00;100327.47;5006595;28;19928;-79
2023/12/08 03:13:44;;;;;;;;;;;;;;;-0.03;100.00;100321.03;5009242;28;19925;-79
2023/12/08 03:16:09;;;;;;;;;;;;;;;0.04;100.00;100325.78;5019853;22;20397;-79
2023/12/08 03:18:34;;;;;;;;;;;;;;;0.06;100.00;100319.38;5012702;28;19983;-79
2023/12/08 03:21:00;;;;;;;;;;;;;;;0.08;100.00;100306.81;5014057;28;19977;-79
2023/12/08 03:23:25;;;;;;;;;;;;;;;0.04;100.00;100305.44;5012958;28;19948;-79
2023/12/08 03:25:50;;;;;;;;;;;;;;;0.08;100.00;100301.53;5012921;28;20353;-78
2023/12/08 03:28:15;;;;;;;;;;;;;;;0.04;100.00;100300.16;5014230;28;19929;-79
2023/12/08 03:30:41;;;;;;;;;;;;;;;-0.04;100.00;100292.09;5014168;28;19926;-79
2023/12/08 03:33:06;;;;;;;;;;;;;;;-0.05;100.00;100293.88;5012965;28;20431;-78
2023/12/08 03:35:31;;;;;;;;;;;;;;;-0.05;100.00;100303.66;5014356;28;19922;-79
2023/12/08 03:37:56;;;;;;;;;;;;;;;-0.08;100.00;100290.69;5013799;28;19921;-79
2023/12/08 03:40:22;;;;;;;;;;;;;;;-0.09;100.00;100296.97;5012375;28;20016;-79
2023/12/08 03:42:47;;;;;;;;;;;;;;;-0.09;100.00;100296.97;5014726;28;20170;-79
2023/12/08 03:45:12;;;;;;;;;;;;;;;-0.09;100.00;100292.50;5011831;28;19929;-79
2023/12/08 03:47:37;;;;;;;;;;;;;;;-0.11;100.00;100290.97;5013051;28;19932;-79
2023/12/08 03:50:03;;;;;;;;;;;;;;;-0.17;100.00;100290.56;5014849;28;20466;-78
2023/12/08 03:52:28;;;;;;;;;;;;;;;-0.20;100.00;100287.38;5018565;28;19925;-78
2023/12/08 03:54:53;;;;;;;;;;;;;;;-0.23;100.00;100282.34;5013524;28;19925;-78
2023/12/08 03:57:19;;;;;;;;;;;;;;;-0.27;100.00;100276.53;5013813;28;19929;-78
2023/12/08 03:59:46;;;;;;;;;;;;;;;-0.30;100.00;100274.16;5013332;28;19921;-79
2023/12/08 04:02:11;;;;;;;;;;;;;;;-0.25;100.00;100277.22;5013269;28;19925;-79
2023/12/08 04:04:36;;;;;;;;;;;;;;;-0.27;100.00;100265.94;5013810;28;19990;-79
2023/12/08 04:07:02;;;;;;;;;;;;;;;-0.28;100.00;100260.81;5014181;28;20366;-79
2023/12/08 04:09:29;;;;;;;;;;;;;;;-0.32;100.00;100265.50;5013701;28;20392;-78
2023/12/08 04:11:54;;;;;;;;;;;;;;;-0.38;100.00;100258.16;5014659;28;19921;-78
2023/12/08 04:14:19;;;;;;;;;;;;;;;-0.35;100.00;100263.16;5013813;28;19944;-78
2023/12/08 04:16:45;;;;;;;;;;;;;;;-0.33;100.00;100285.00;5014675;28;19921;-78
2023/12/08 04:19:12;;;;;;;;;;;;;;;-0.37;100.00;100281.00;5015937;28;19965;-78
2023/12/08 04:21:41;;;;;;;;;;;;;;;-0.38;100.00;100263.44;5016586;28;19928;-78
2023/12/08 04:24:06;;;;;;;;;;;;;;;-0.37;100.00;100265.94;5031564;28;19952;-78
2023/12/08 04:26:32;;;;;;;;;;;;;;;-0.43;100.00;100263.03;5021989;28;19917;-79
2023/12/08 04:28:57;;;;;;;;;;;;;;;-0.43;100.00;100252.44;5017784;28;19960;-78
2023/12/08 04:31:22;;;;;;;;;;;;;;;-0.47;100.00;100254.56;5014163;28;19921;-78
2023/12/08 04:33:50;;;;;;;;;;;;;;;-0.49;100.00;100240.63;5014510;28;19929;-79
2023/12/08 04:36:15;;;;;;;;;;;;;;;-0.53;100.00;100250.63;5015468;28;19976;-78
2023/12/08 04:38:40;;;;;;;;;;;;;;;-0.53;100.00;100247.16;5013658;28;19925;-78
2023/12/08 04:41:05;;;;;;;;;;;;;;;-0.53;100.00;100245.34;5013921;28;19928;-78
2023/12/08 04:43:31;;;;;;;;;;;;;;;-0.50;100.00;100239.78;5011491;28;20373;-78
2023/12/08 04:45:56;;;;;;;;;;;;;;;-0.44;100.00;100243.66;5012544;28;20377;-77
2023/12/08 04:48:21;;;;;;;;;;;;;;;-0.37;100.00;100236.84;5011299;28;20341;-77
2023/12/08 04:50:46;;;;;;;;;;;;;;;-0.36;100.00;100237.69;5013113;28;20373;-77
2023/12/08 04:53:12;;;;;;;;;;;;;;;-0.30;100.00;100234.47;5014227;28;20043;-78
2023/12/08 04:55:37;;;;;;;;;;;;;;;-0.29;100.00;100235.31;5012378;28;20305;-78
2023/12/08 04:58:08;;;;;;;;;;;;;;;-0.28;100.00;100248.41;5017493;28;19975;-78
2023/12/08 05:00:37;;;;;;;;;;;;;;;-0.28;100.00;100274.84;5012447;28;19921;-78
2023/12/08 05:03:02;;;;;;;;;;;;;;;-0.29;100.00;100277.66;5016104;28;20012;-78
2023/12/08 05:05:27;;;;;;;;;;;;;;;-0.27;100.00;100271.22;5012853;28;19976;-78
2023/12/08 05:07:52;;;;;;;;;;;;;;;-0.26;100.00;100286.13;5012185;28;19921;-77
2023/12/08 05:10:18;;;;;;;;;;;;;;;-0.24;100.00;100270.94;5011387;28;19930;-77
2023/12/08 05:12:43;;;;;;;;;;;;;;;-0.29;100.00;100262.59;5012442;28;19921;-78
2023/12/08 05:15:08;;;;;;;;;;;;;;;-0.33;100.00;100261.19;5011741;28;19922;-78
2023/12/08 05:17:33;;;;;;;;;;;;;;;-0.27;100.00;100268.59;5012737;28;20393;-77
2023/12/08 05:20:02;;;;;;;;;;;;;;;-0.32;100.00;100274.31;5019198;28;19925;-78
2023/12/08 05:22:27;;;;;;;;;;;;;;;-0.36;100.00;100285.31;5014379;28;19948;-78
2023/12/08 05:24:52;;;;;;;;;;;;;;;-0.31;100.00;100285.69;5011895;28;20279;-77
2023/12/08 05:27:17;;;;;;;;;;;;;;;-0.35;100.00;100286.94;5013158;28;19925;-78
2023/12/08 05:29:43;;;;;;;;;;;;;;;-0.35;100.00;100293.09;5011836;28;19925;-78
2023/12/08 05:32:10;;;;;;;;;;;;;;;-0.37;100.00;100295.03;5015126;28;19925;-77
2023/12/08 05:34:35;;;;;;;;;;;;;;;-0.41;100.00;100303.41;5015571;28;20370;-78
2023/12/08 05:37:00;;;;;;;;;;;;;;;-0.43;100.00;100297.41;5015455;28;19936;-78
2023/12/08 05:39:25;;;;;;;;;;;;;;;-0.47;100.00;100296.84;5014866;28;19917;-78
2023/12/08 05:41:51;;;;;;;;;;;;;;;-0.48;100.00;100300.47;5017708;28;19928;-77
2023/12/08 05:44:16;;;;;;;;;;;;;;;-0.49;100.00;100294.34;5024492;28;19909;-77
2023/12/08 05:46:41;;;;;;;;;;;;;;;-0.48;100.00;100289.91;5031187;28;19972;-77
2023/12/08 05:49:07;;;;;;;;;;;;;;;-0.44;100.00;100303.66;5033602;28;19933;-78
2023/12/08 05:51:32;;;;;;;;;;;;;;;-0.46;100.00;100304.63;5017289;28;20366;-77
2023/12/08 05:54:00;;;;;;;;;;;;;;;-0.43;100.00;100308.81;5015466;28;19928;-78
2023/12/08 05:56:28;;;;;;;;;;;;;;;-0.42;100.00;100307.84;5016569;28;19921;-78
2023/12/08 05:58:53;;;;;;;;;;;;;;;-0.41;100.00;100295.47;5015004;28;19932;-77
2023/12/08 06:01:19;;;;;;;;;;;;;;;-0.43;100.00;100282.34;5015937;28;19922;-77
2023/12/08 06:03:45;;;;;;;;;;;;;;;-0.38;100.00;100264.28;5024260;28;19922;-78
2023/12/08 06:06:10;;;;;;;;;;;;;;;-0.32;100.00;100274.31;5012284;28;19956;-78
2023/12/08 06:08:35;;;;;;;;;;;;;;;-0.30;100.00;100263.56;5014198;28;19921;-78
2023/12/08 06:11:04;;;;;;;;;;;;;;;-0.27;100.00;100254.53;5014324;28;19929;-78
2023/12/08 06:13:29;;;;;;;;;;;;;;;-0.26;100.00;100257.03;5014512;28;19921;-78
2023/12/08 06:15:57;;;;;;;;;;;;;;;-0.18;100.00;100256.31;5014306;28;19921;-78
2023/12/08 06:18:23;;;;;;;;;;;;;;;-0.20;100.00;100256.47;5006857;28;19976;-78
2023/12/08 06:20:49;;;;;;;;;;;;;;;-0.13;100.00;100240.00;5014379;28;19964;-78
2023/12/08 06:23:14;;;;;;;;;;;;;;;-0.12;100.00;100233.75;5014040;28;19921;-78
2023/12/08 06:25:40;;;;;;;;;;;;;;;-0.09;100.00;100252.81;5015601;28;19967;-77
2023/12/08 06:28:05;;;;;;;;;;;;;;;-0.04;100.00;100255.88;5017669;28;19928;-78
2023/12/08 06:30:30;;;;;;;;;;;;;;;-0.04;100.00;100255.06;5287358;22;20124;-78
2023/12/08 06:32:55;;;;;;;;;;;;;;;-0.04;100.00;100257.69;5026721;28;19926;-78
2023/12/08 06:35:29;;;;;;;;;;;;;;;0.03;100.00;100257.97;5015924;28;19925;-78
2023/12/08 06:38:01;;;;;;;;;;;;;;;0.04;100.00;100257.81;5015098;28;19930;-78
2023/12/08 06:40:26;;;;;;;;;;;;;;;-0.02;100.00;100266.34;5015047;28;20329;-78
2023/12/08 06:42:51;;;;;;;;;;;;;;;0.08;100.00;100269.78;5013792;28;19925;-77
2023/12/08 06:45:16;;;;;;;;;;;;;;;0.14;100.00;100266.56;5013823;28;19983;-78
2023/12/08 06:47:44;;;;;;;;;;;;;;;0.12;100.00;100265.88;5015968;28;19922;-78
2023/12/08 06:50:10;;;;;;;;;;;;;;;0.19;100.00;100270.56;5013777;28;19921;-78
2023/12/08 06:52:35;;;;;;;;;;;;;;;0.27;100.00;100268.88;5013966;28;19936;-78
2023/12/08 06:55:01;;;;;;;;;;;;;;;0.18;100.00;100272.41;5014792;28;19925;-78
2023/12/08 06:57:26;;;;;;;;;;;;;;;0.24;100.00;100274.47;5014819;28;19932;-78
2023/12/08 06:59:52;;;;;;;;;;;;;;;0.18;100.00;100266.28;5014220;28;19952;-78
2023/12/08 07:02:17;;;;;;;;;;;;;;;0.20;100.00;100269.59;5013684;28;19926;-78
2023/12/08 07:04:45;;;;;;;;;;;;;;;0.31;100.00;100277.38;5014129;28;20444;-78
2023/12/08 07:07:11;;;;;;;;;;;;;;;0.36;100.00;100276.94;5013413;28;20056;-78
2023/12/08 07:09:36;;;;;;;;;;;;;;;0.29;100.00;100272.22;5013609;28;20339;-78
2023/12/08 07:12:02;;;;;;;;;;;;;;;0.29;100.00;100272.22;5013987;28;20016;-78
2023/12/08 07:14:30;;;;;;;;;;;;;;;0.29;100.00;100272.22;5013390;28;20040;-78
2023/12/08 07:16:55;;;;;;;;;;;;;;;0.35;100.00;100270.84;5013867;28;19951;-78
2023/12/08 07:19:21;;;;;;;;;;;;;;;0.26;100.00;100280.47;5014095;28;19925;-78
2023/12/08 07:21:46;;;;;;;;;;;;;;;0.26;100.00;100282.28;5014368;28;19940;-79
2023/12/08 07:24:11;;;;;;;;;;;;;;;0.21;100.00;100279.22;5012536;28;19944;-79
2023/12/08 07:26:37;;;;;;;;;;;;;;;0.22;100.00;100286.19;5014585;28;20578;-79
2023/12/08 07:29:02;;;;;;;;;;;;;;;0.21;100.00;100295.09;5013214;28;19921;-79
2023/12/08 07:31:27;;;;;;;;;;;;;;;0.33;100.00;100293.97;5012823;28;20296;-79
2023/12/08 07:33:52;;;;;;;;;;;;;;;0.27;100.00;100294.53;5014908;28;19922;-80
2023/12/08 07:36:18;;;;;;;;;;;;;;;0.26;100.00;100287.56;5014051;28;19967;-79
2023/12/08 07:38:45;;;;;;;;;;;;;;;0.36;100.00;100290.19;5013046;28;19922;-79
2023/12/08 07:41:11;;;;;;;;;;;;;;;0.32;100.00;100289.66;5014358;28;19921;-79
2023/12/08 07:43:36;;;;;;;;;;;;;;;0.29;100.00;100282.00;5013052;28;19928;-79
2023/12/08 07:46:01;;;;;;;;;;;;;;;0.31;100.00;100285.31;5013007;28;20446;-79
2023/12/08 07:48:27;;;;;;;;;;;;;;;0.30;100.00;100284.47;5012833;28;19921;-81
2023/12/08 07:50:58;;;;;;;;;;;;;;;0.36;100.00;100283.06;5014146;28;19921;-83
2023/12/08 07:55:59;;;;;;;;;;;;;;;0.40;100.00;100289.75;5878612;22;19925;-79
2023/12/08 07:58:24;;;;;;;;;;;;;;;0.40;100.00;100288.94;4996348;28;20345;-79
2023/12/08 08:00:50;;;;;;;;;;;;;;;0.47;100.00;100299.78;4995012;28;19921;-80
2023/12/08 08:03:15;;;;;;;;;;;;;;;0.51;100.00;100295.84;4998024;28;20414;-79
2023/12/08 08:05:41;;;;;;;;;;;;;;;0.50;100.00;100304.78;5000793;28;19927;-79
2023/12/08 08:08:07;;;;;;;;;;;;;;;0.49;100.00;100303.13;5001211;28;20016;-79
2023/12/08 08:10:32;;;;;;;;;;;;;;;0.60;100.00;100305.56;5001061;28;19921;-79
2023/12/08 08:12:57;;;;;;;;;;;;;;;0.69;100.00;100315.31;5004548;28;19922;-79
2023/12/08 08:18:01;;;;;;;;;;;;;;;0.76;100.00;100310.25;5461267;22;19925;-79
2023/12/08 08:25:31;;;;;;;;;;;;;;;0.84;100.00;100301.56;5010111;28;19933;-80
2023/12/08 08:28:00;;;;;;;;;;;;;;;0.89;100.00;100309.88;5009859;28;20433;-80
2023/12/08 08:30:26;;;;;;;;;;;;;;;0.91;100.00;100305.28;5004482;28;19921;-79
2023/12/08 08:32:51;;;;;;;;;;;;;;;0.99;100.00;100316.00;5011774;28;19922;-80
2023/12/08 08:35:31;;;;;;;;;;;;;;;1.01;100.00;100318.50;5545047;22;20280;-79
2023/12/08 08:43:41;;;;;;;;;;;;;;;1.14;100.00;100323.44;3193316;22;19926;-79
2023/12/08 08:46:25;;;;;;;;;;;;;;;1.13;100.00;100322.63;4973722;28;20034;-79
2023/12/08 08:48:56;;;;;;;;;;;;;;;1.19;100.00;100322.00;4991922;28;19956;-79
2023/12/08 08:51:22;;;;;;;;;;;;;;;1.16;100.00;100318.84;4999792;28;20060;-80
2023/12/08 08:53:50;;;;;;;;;;;;;;;1.18;100.00;100315.03;4991625;28;20005;-80
2023/12/08 08:56:16;;;;;;;;;;;;;;;1.27;100.00;100313.31;4989444;28;20340;-79
2023/12/08 08:58:41;;;;;;;;;;;;;;;1.20;100.00;100306.94;4995261;28;20001;-80
2023/12/08 09:01:06;;;;;;;;;;;;;;;1.28;100.00;100324.78;4992186;28;19928;-80
2023/12/08 09:09:07;;;;;;;;;;;;;;;1.41;100.00;100319.09;4997465;28;20263;-81
2023/12/08 09:11:38;;;;;;;;;;;;;;;1.38;100.00;100314.91;4992609;28;19933;-80
2023/12/08 09:14:04;;;;;;;;;;;;;;;1.43;100.00;100325.06;4993971;28;19957;-79
2023/12/08 09:16:32;;;;;;;;;;;;;;;1.46;100.00;100319.47;4993918;28;19964;-81
2023/12/08 09:19:00;;;;;;;;;;;;;;;1.51;100.00;100325.16;4994637;28;19940;-79
2023/12/08 09:21:31;;;;;;;;;;;;;;;1.50;100.00;100329.63;4993829;28;20404;-80
2023/12/08 09:24:02;;;;;;;;;;;;;;;1.52;100.00;100326.84;4988227;28;20003;-80
2023/12/08 09:29:02;;;;;;;;;;;;;;;1.45;100.00;100336.38;5024985;22;19995;-80
2023/12/08 09:31:45;;;;;;;;;;;;;;;1.53;100.00;100333.81;5031851;28;20162;-80
2023/12/08 09:40:16;;;;;;;;;;;;;;;1.55;100.00;100337.16;5014073;28;19928;-80
2023/12/08 09:43:01;;;;;;;;;;;;;;;1.50;100.00;100345.53;5012985;28;20298;-80
2023/12/08 09:45:27;;;;;;;;;;;;;;;1.60;100.00;100340.16;5012707;28;19925;-79
2023/12/08 09:47:52;;;;;;;;;;;;;;;1.69;100.00;100337.59;4997690;28;19921;-80
2023/12/08 09:50:21;;;;;;;;;;;;;;;1.73;100.00;100334.47;5013290;28;19926;-80
2023/12/08 09:53:04;;;;;;;;;;;;;;;1.71;100.00;100323.19;5012661;28;20419;-80
2023/12/08 09:55:29;;;;;;;;;;;;;;;1.77;100.00;100325.25;5013973;28;19922;-79
2023/12/08 09:57:55;;;;;;;;;;;;;;;1.74;100.00;100343.28;5012511;28;20452;-80
2023/12/08 10:00:27;;;;;;;;;;;;;;;1.81;100.00;100331.91;4995582;28;19965;-80
2023/12/08 10:03:00;;;;;;;;;;;;;;;1.81;100.00;100326.59;4995949;28;19973;-81
2023/12/08 10:05:35;;;;;;;;;;;;;;;1.81;100.00;100337.22;5012141;28;20000;-79
2023/12/08 10:08:00;;;;;;;;;;;;;;;1.84;100.00;100329.94;5010344;28;19922;-80
2023/12/08 10:10:25;;;;;;;;;;;;;;;1.87;100.00;100335.78;5012962;28;20374;-80
2023/12/08 10:13:00;;;;;;;;;;;;;;;1.87;100.00;100327.81;5012488;28;19925;-80
2023/12/08 10:15:31;;;;;;;;;;;;;;;1.91;100.00;100326.53;5012232;28;19979;-80
2023/12/08 10:18:15;;;;;;;;;;;;;;;1.93;100.00;100323.72;5014068;28;19921;-80
2023/12/08 10:20:59;;;;;;;;;;;;;;;1.96;100.00;100318.91;5006347;28;19937;-80
2023/12/08 10:24:01;;;;;;;;;;;;;;;1.91;100.00;100323.88;5013561;28;19921;-80
2023/12/08 10:26:36;;;;;;;;;;;;;;;1.98;100.00;100326.75;5012731;28;19929;-79
2023/12/08 10:29:02;;;;;;;;;;;;;;;1.99;100.00;100340.84;5012500;28;20420;-80
2023/12/08 10:31:27;;;;;;;;;;;;;;;1.96;100.00;100337.50;5013614;28;20019;-79
2023/12/08 10:34:07;;;;;;;;;;;;;;;2.03;100.00;100343.03;5013419;28;19964;-80
2023/12/08 10:43:07;;;;;;;;;;;;;;;2.03;100.00;100344.84;4985488;28;20354;-80
2023/12/08 10:48:19;;;;;;;;;;;;;;;2.03;100.00;100344.84;5303000;22;19932;-80
2023/12/08 10:50:44;;;;;;;;;;;;;;;2.00;100.00;100346.00;4992635;28;19929;-79
2023/12/08 10:53:13;;;;;;;;;;;;;;;2.02;100.00;100348.50;4975575;28;19922;-79
2023/12/08 10:55:38;;;;;;;;;;;;;;;2.03;100.00;100340.38;4991815;28;19922;-80
2023/12/08 10:58:03;;;;;;;;;;;;;;;1.99;100.00;100344.34;4992675;28;19928;-80
2023/12/08 11:00:32;;;;;;;;;;;;;;;2.05;100.00;100342.88;4974902;28;20294;-80
2023/12/08 11:02:59;;;;;;;;;;;;;;;2.07;100.00;100339.09;4993144;28;19922;-79
2023/12/08 11:05:26;;;;;;;;;;;;;;;2.10;100.00;100345.94;4975876;28;20143;-79
2023/12/08 11:07:52;;;;;;;;;;;;;;;2.14;100.00;100352.56;4993363;28;19934;-80
2023/12/08 11:10:18;;;;;;;;;;;;;;;2.14;100.00;100341.94;4992850;28;19926;-80
2023/12/08 11:12:46;;;;;;;;;;;;;;;2.16;100.00;100339.97;4975279;28;19933;-79
2023/12/08 11:15:16;;;;;;;;;;;;;;;2.24;100.00;100337.41;4975447;28;19922;-80
2023/12/08 11:17:57;;;;;;;;;;;;;;;2.25;100.00;100338.22;5045447;23;19930;-80
2023/12/08 11:20:22;;;;;;;;;;;;;;;2.27;100.00;100325.63;4976081;28;19952;-80
2023/12/08 11:22:47;;;;;;;;;;;;;;;2.26;100.00;100316.84;4974508;28;19929;-80
2023/12/08 11:25:33;;;;;;;;;;;;;;;2.35;100.00;100319.53;4974927;28;19969;-80
2023/12/08 11:31:09;;;;;;;;;;;;;;;2.37;100.00;100330.81;4998319;28;19932;31
2023/12/08 11:34:08;;;;;;;;;;;;;;;2.36;100.00;100326.50;5012029;22;19932;-80
2023/12/08 11:36:34;;;;;;;;;;;;;;;2.36;100.00;100327.34;5712407;22;19983;-80
2023/12/08 11:38:59;;;;;;;;;;;;;;;2.41;100.00;100325.03;5250789;22;20288;-80
2023/12/08 11:41:27;;;;;;;;;;;;;;;2.43;100.00;100328.38;4992604;28;19926;-80
2023/12/08 11:43:53;;;;;;;;;;;;;;;2.43;100.00;100330.22;5008587;28;20247;-80
2023/12/08 11:46:18;;;;;;;;;;;;;;;2.43;100.00;100343.50;4994513;28;19922;-80
2023/12/08 12:01:02;;;;;;;;;;;;;;;2.38;100.00;100343.94;5496940;22;19944;-80
2023/12/08 12:07:10;;;;;;;;;;;;;;;2.46;100.00;100355.63;5193176;22;19932;-80
2023/12/08 12:10:03;;;;;;;;;;;;;;;2.45;100.00;100360.13;5031901;28;20353;-80
2023/12/08 12:13:03;;;;;;;;;;;;;;;2.48;100.00;100353.66;5030497;28;20425;-81
2023/12/08 12:19:17;;;;;;;;;;;;;;;2.60;100.00;100349.72;5026464;28;20349;-79
2023/12/08 12:24:54;;;;;;;;;;;;;;;2.61;100.00;100347.91;5031884;28;19928;-80
2023/12/08 12:27:19;;;;;;;;;;;;;;;2.62;100.00;100350.41;5026120;28;20059;-79
2023/12/08 12:29:53;;;;;;;;;;;;;;;2.65;100.00;100350.09;5035318;28;20329;-79
2023/12/08 12:32:28;;;;;;;;;;;;;;;2.71;100.00;100352.13;5033228;28;19948;-79
2023/12/08 12:35:02;;;;;;;;;;;;;;;2.75;100.00;100355.31;5030485;28;19925;-78
2023/12/08 12:37:27;;;;;;;;;;;;;;;2.81;100.00;100362.66;5030733;28;19925;-78
2023/12/08 12:39:53;;;;;;;;;;;;;;;2.76;100.00;100354.31;5029815;28;20436;-78
2023/12/08 12:42:18;;;;;;;;;;;;;;;2.83;100.00;100351.84;5030269;28;20022;-78
2023/12/08 12:44:44;;;;;;;;;;;;;;;2.88;100.00;100358.34;5030951;28;19925;-78
2023/12/08 12:47:09;;;;;;;;;;;;;;;2.96;100.00;100354.06;5031179;28;19932;-78
2023/12/08 12:49:36;;;;;;;;;;;;;;;2.94;100.00;100362.19;5030677;28;19925;-78
2023/12/08 12:52:03;;;;;;;;;;;;;;;2.94;100.00;100364.84;5031041;28;19960;-78
2023/12/08 12:54:34;;;;;;;;;;;;;;;2.94;100.00;100375.50;5034217;28;19921;-79
2023/12/08 12:57:12;;;;;;;;;;;;;;;2.96;100.00;100372.69;5051892;28;19973;-79
2023/12/08 13:00:01;;;;;;;;;;;;;;;3.00;100.00;100366.88;5036901;28;19960;-79
2023/12/08 13:02:27;;;;;;;;;;;;;;;3.03;100.00;100369.25;5030807;28;19925;-79
2023/12/08 13:04:53;;;;;;;;;;;;;;;3.08;100.00;100371.41;5030339;28;19963;-78
2023/12/08 13:07:18;;;;;;;;;;;;;;;3.09;100.00;100367.75;5031462;28;19949;-77
2023/12/08 13:09:46;;;;;;;;;;;;;;;3.12;100.00;100380.75;5031020;28;20443;-79
2023/12/08 13:12:11;;;;;;;;;;;;;;;3.15;100.00;100380.44;5031144;28;19917;-80
2023/12/08 13:14:36;;;;;;;;;;;;;;;3.21;100.00;100375.44;5013050;28;19921;-79
2023/12/08 13:17:04;;;;;;;;;;;;;;;3.24;100.00;100380.44;5030776;28;19929;-77
2023/12/08 13:19:29;;;;;;;;;;;;;;;3.32;100.00;100383.16;5012120;28;19991;-80
2023/12/08 13:21:55;;;;;;;;;;;;;;;3.34;100.00;100386.47;5030660;28;20381;-79
2023/12/08 13:24:23;;;;;;;;;;;;;;;3.32;100.00;100383.16;5032204;28;20297;-80
2023/12/08 13:26:48;;;;;;;;;;;;;;;3.25;100.00;100390.09;5033429;28;19980;-80
2023/12/08 13:29:14;;;;;;;;;;;;;;;3.31;100.00;100387.63;5032801;28;20355;-80
2023/12/08 13:31:42;;;;;;;;;;;;;;;3.32;100.00;100383.97;5031404;28;20070;-80
2023/12/08 13:34:09;;;;;;;;;;;;;;;3.29;100.00;100378.13;5030006;28;19928;-80
2023/12/08 13:36:34;;;;;;;;;;;;;;;3.34;100.00;100397.94;5029199;28;19925;-80